Little Burnt Bay, Canada
Current Conditions -  °F | °C
As of 3:00 AM on Thursday 23 Oct 2014 (Local Time) from CYQX Reporting Station
Scattered Clouds Scattered Clouds  
Wind Chill: 39°   Ceiling: Unl
Heat Index: 39°   Visibility: 20mi
Dew Point: 37°   Wind: 2mph
Humidity: 93%   Direction: 180°S
Pressure: 30.43"   Gusts: NA
Location:  49.33°N, 55.08°W
Report Text: CYQX 230500Z 18002KT 20SM FEW030 SCT260 04/03 A3043 RMK SC1CI3 SLP309
Loading
Personal Weather Stations






























Interactive Weather Map
Tropical Storm Tracking
New forecast layout! Learn more

10-Day Weather Forecast

Advertisements
Track Severe Weather on mobile